sensor_id;sensor_type;location;lat;lon;timestamp;P1;durP1;ratioP1;P2;durP2;ratioP2
39094;SDS011;24840;47.508;19.376;2022-12-16T00:01:05;20.37;;;14.30;;
39094;SDS011;24840;47.508;19.376;2022-12-16T00:03:33;12.75;;;9.40;;
39094;SDS011;24840;47.508;19.376;2022-12-16T00:05:59;17.23;;;12.80;;
39094;SDS011;24840;47.508;19.376;2022-12-16T00:08:27;17.70;;;12.60;;
39094;SDS011;24840;47.508;19.376;2022-12-16T00:10:57;18.73;;;13.37;;
39094;SDS011;24840;47.508;19.376;2022-12-16T00:13:23;21.97;;;13.50;;
39094;SDS011;24840;47.508;19.376;2022-12-16T00:15:49;19.13;;;14.03;;
39094;SDS011;24840;47.508;19.376;2022-12-16T00:18:15;20.77;;;13.77;;
39094;SDS011;24840;47.508;19.376;2022-12-16T00:20:44;17.00;;;11.73;;
39094;SDS011;24840;47.508;19.376;2022-12-16T00:23:11;16.83;;;11.57;;
39094;SDS011;24840;47.508;19.376;2022-12-16T00:25:37;17.00;;;11.80;;
39094;SDS011;24840;47.508;19.376;2022-12-16T00:28:03;15.83;;;11.70;;
39094;SDS011;24840;47.508;19.376;2022-12-16T00:30:29;16.37;;;12.10;;
39094;SDS011;24840;47.508;19.376;2022-12-16T00:32:54;15.97;;;10.70;;
39094;SDS011;24840;47.508;19.376;2022-12-16T00:35:20;14.70;;;9.93;;
39094;SDS011;24840;47.508;19.376;2022-12-16T00:37:46;15.93;;;10.03;;
39094;SDS011;24840;47.508;19.376;2022-12-16T00:40:12;15.87;;;11.27;;
39094;SDS011;24840;47.508;19.376;2022-12-16T00:42:37;15.27;;;10.27;;
39094;SDS011;24840;47.508;19.376;2022-12-16T00:45:03;11.20;;;8.77;;
39094;SDS011;24840;47.508;19.376;2022-12-16T00:47:29;10.13;;;8.20;;
39094;SDS011;24840;47.508;19.376;2022-12-16T00:49:55;12.03;;;8.90;;
39094;SDS011;24840;47.508;19.376;2022-12-16T00:52:21;11.17;;;7.73;;
39094;SDS011;24840;47.508;19.376;2022-12-16T00:54:46;9.17;;;6.70;;
39094;SDS011;24840;47.508;19.376;2022-12-16T00:57:12;9.13;;;5.80;;
39094;SDS011;24840;47.508;19.376;2022-12-16T00:59:41;8.47;;;7.03;;
39094;SDS011;24840;47.508;19.376;2022-12-16T01:02:06;9.10;;;7.30;;
39094;SDS011;24840;47.508;19.376;2022-12-16T01:04:35;6.33;;;5.00;;
39094;SDS011;24840;47.508;19.376;2022-12-16T01:07:01;6.70;;;5.33;;
39094;SDS011;24840;47.508;19.376;2022-12-16T01:09:27;6.93;;;5.57;;
39094;SDS011;24840;47.508;19.376;2022-12-16T01:11:53;7.40;;;5.40;;
39094;SDS011;24840;47.508;19.376;2022-12-16T01:14:19;6.57;;;5.07;;
39094;SDS011;24840;47.508;19.376;2022-12-16T01:16:44;6.67;;;4.77;;
39094;SDS011;24840;47.508;19.376;2022-12-16T01:19:10;6.90;;;5.53;;
39094;SDS011;24840;47.508;19.376;2022-12-16T01:21:36;7.77;;;5.17;;
39094;SDS011;24840;47.508;19.376;2022-12-16T01:24:02;5.50;;;4.27;;
39094;SDS011;24840;47.508;19.376;2022-12-16T01:26:28;5.73;;;5.07;;
39094;SDS011;24840;47.508;19.376;2022-12-16T01:28:53;5.13;;;4.37;;
39094;SDS011;24840;47.508;19.376;2022-12-16T01:31:19;9.77;;;5.87;;
39094;SDS011;24840;47.508;19.376;2022-12-16T01:33:46;7.23;;;5.30;;
39094;SDS011;24840;47.508;19.376;2022-12-16T01:36:12;5.87;;;4.47;;
39094;SDS011;24840;47.508;19.376;2022-12-16T01:38:38;4.90;;;4.03;;
39094;SDS011;24840;47.508;19.376;2022-12-16T01:41:08;7.43;;;4.97;;
39094;SDS011;24840;47.508;19.376;2022-12-16T01:43:36;5.57;;;3.97;;
39094;SDS011;24840;47.508;19.376;2022-12-16T01:48:40;3.33;;;2.80;;
39094;SDS011;24840;47.508;19.376;2022-12-16T01:56:54;3.97;;;3.30;;
39094;SDS011;24840;47.508;19.376;2022-12-16T01:59:23;5.60;;;3.23;;
39094;SDS011;24840;47.508;19.376;2022-12-16T02:01:51;4.13;;;2.50;;
39094;SDS011;24840;47.508;19.376;2022-12-16T02:04:17;4.80;;;3.27;;
39094;SDS011;24840;47.508;19.376;2022-12-16T02:06:43;3.80;;;3.00;;
39094;SDS011;24840;47.508;19.376;2022-12-16T02:09:09;7.73;;;3.10;;
39094;SDS011;24840;47.508;19.376;2022-12-16T02:16:59;2.77;;;2.30;;
39094;SDS011;24840;47.508;19.376;2022-12-16T02:22:46;3.03;;;2.43;;
39094;SDS011;24840;47.508;19.376;2022-12-16T02:25:38;3.07;;;2.67;;
39094;SDS011;24840;47.508;19.376;2022-12-16T02:31:32;3.07;;;2.67;;
39094;SDS011;24840;47.508;19.376;2022-12-16T02:39:30;3.37;;;2.63;;
39094;SDS011;24840;47.508;19.376;2022-12-16T02:42:06;3.90;;;3.03;;
39094;SDS011;24840;47.508;19.376;2022-12-16T02:47:27;2.83;;;2.37;;
39094;SDS011;24840;47.508;19.376;2022-12-16T02:49:54;2.63;;;2.27;;
39094;SDS011;24840;47.508;19.376;2022-12-16T02:52:22;5.90;;;3.97;;
39094;SDS011;24840;47.508;19.376;2022-12-16T02:54:51;4.67;;;3.47;;
39094;SDS011;24840;47.508;19.376;2022-12-16T03:00:10;5.27;;;4.03;;
39094;SDS011;24840;47.508;19.376;2022-12-16T03:05:28;5.97;;;4.67;;
39094;SDS011;24840;47.508;19.376;2022-12-16T03:07:58;5.03;;;4.40;;
39094;SDS011;24840;47.508;19.376;2022-12-16T03:10:29;6.33;;;4.87;;
39094;SDS011;24840;47.508;19.376;2022-12-16T03:13:01;5.97;;;4.37;;
39094;SDS011;24840;47.508;19.376;2022-12-16T03:15:30;6.77;;;5.90;;
39094;SDS011;24840;47.508;19.376;2022-12-16T03:17:58;5.73;;;5.13;;
39094;SDS011;24840;47.508;19.376;2022-12-16T03:20:28;7.87;;;6.03;;
39094;SDS011;24840;47.508;19.376;2022-12-16T03:23:17;9.50;;;7.10;;
39094;SDS011;24840;47.508;19.376;2022-12-16T03:25:48;9.50;;;6.77;;
39094;SDS011;24840;47.508;19.376;2022-12-16T03:30:54;10.20;;;6.80;;
39094;SDS011;24840;47.508;19.376;2022-12-16T03:33:26;7.57;;;6.27;;
39094;SDS011;24840;47.508;19.376;2022-12-16T03:35:59;7.30;;;6.07;;
39094;SDS011;24840;47.508;19.376;2022-12-16T03:38:39;8.40;;;6.83;;
39094;SDS011;24840;47.508;19.376;2022-12-16T03:41:07;8.07;;;6.27;;
39094;SDS011;24840;47.508;19.376;2022-12-16T03:43:33;7.80;;;5.73;;
39094;SDS011;24840;47.508;19.376;2022-12-16T03:46:01;7.47;;;5.97;;
39094;SDS011;24840;47.508;19.376;2022-12-16T03:48:30;8.00;;;5.73;;
39094;SDS011;24840;47.508;19.376;2022-12-16T03:50:56;8.33;;;5.83;;
39094;SDS011;24840;47.508;19.376;2022-12-16T03:53:21;6.40;;;5.40;;
39094;SDS011;24840;47.508;19.376;2022-12-16T03:55:50;6.77;;;5.27;;
39094;SDS011;24840;47.508;19.376;2022-12-16T03:58:19;6.80;;;5.33;;
39094;SDS011;24840;47.508;19.376;2022-12-16T04:00:45;7.60;;;5.57;;
39094;SDS011;24840;47.508;19.376;2022-12-16T04:03:11;7.60;;;6.37;;
39094;SDS011;24840;47.508;19.376;2022-12-16T04:05:37;7.73;;;6.53;;
39094;SDS011;24840;47.508;19.376;2022-12-16T04:08:03;7.30;;;5.67;;
39094;SDS011;24840;47.508;19.376;2022-12-16T04:10:29;6.57;;;5.33;;
39094;SDS011;24840;47.508;19.376;2022-12-16T04:13:13;8.07;;;6.00;;
39094;SDS011;24840;47.508;19.376;2022-12-16T04:15:57;6.90;;;5.27;;
39094;SDS011;24840;47.508;19.376;2022-12-16T04:18:58;8.20;;;6.33;;
39094;SDS011;24840;47.508;19.376;2022-12-16T04:21:43;7.40;;;5.57;;
39094;SDS011;24840;47.508;19.376;2022-12-16T04:24:27;7.80;;;5.90;;
39094;SDS011;24840;47.508;19.376;2022-12-16T04:26:55;9.33;;;7.20;;
39094;SDS011;24840;47.508;19.376;2022-12-16T04:29:39;8.87;;;5.87;;
39094;SDS011;24840;47.508;19.376;2022-12-16T04:32:23;8.20;;;6.70;;
39094;SDS011;24840;47.508;19.376;2022-12-16T04:34:49;8.87;;;6.87;;
39094;SDS011;24840;47.508;19.376;2022-12-16T04:37:16;9.00;;;7.43;;
39094;SDS011;24840;47.508;19.376;2022-12-16T04:40:01;9.10;;;6.97;;
39094;SDS011;24840;47.508;19.376;2022-12-16T04:42:46;7.90;;;6.47;;
39094;SDS011;24840;47.508;19.376;2022-12-16T04:45:30;10.03;;;7.53;;
39094;SDS011;24840;47.508;19.376;2022-12-16T04:48:14;9.80;;;7.77;;
39094;SDS011;24840;47.508;19.376;2022-12-16T04:51:00;9.37;;;6.93;;
39094;SDS011;24840;47.508;19.376;2022-12-16T04:53:44;8.80;;;7.90;;
39094;SDS011;24840;47.508;19.376;2022-12-16T04:56:28;10.10;;;8.23;;
39094;SDS011;24840;47.508;19.376;2022-12-16T04:59:12;10.07;;;8.70;;
39094;SDS011;24840;47.508;19.376;2022-12-16T05:01:56;10.80;;;8.13;;
39094;SDS011;24840;47.508;19.376;2022-12-16T05:04:40;9.97;;;8.30;;
39094;SDS011;24840;47.508;19.376;2022-12-16T05:07:25;12.43;;;10.00;;
39094;SDS011;24840;47.508;19.376;2022-12-16T05:10:09;11.33;;;8.73;;
39094;SDS011;24840;47.508;19.376;2022-12-16T05:12:53;12.03;;;9.20;;
39094;SDS011;24840;47.508;19.376;2022-12-16T05:15:38;10.97;;;8.53;;
39094;SDS011;24840;47.508;19.376;2022-12-16T05:18:22;10.87;;;8.50;;
39094;SDS011;24840;47.508;19.376;2022-12-16T05:21:06;12.87;;;9.97;;
39094;SDS011;24840;47.508;19.376;2022-12-16T05:23:50;14.83;;;10.77;;
39094;SDS011;24840;47.508;19.376;2022-12-16T05:26:34;14.97;;;10.10;;
39094;SDS011;24840;47.508;19.376;2022-12-16T05:29:19;13.50;;;10.40;;
39094;SDS011;24840;47.508;19.376;2022-12-16T05:32:03;11.63;;;9.97;;
39094;SDS011;24840;47.508;19.376;2022-12-16T05:34:47;14.13;;;11.07;;
39094;SDS011;24840;47.508;19.376;2022-12-16T05:37:31;13.23;;;10.97;;
39094;SDS011;24840;47.508;19.376;2022-12-16T05:40:15;16.87;;;11.80;;
39094;SDS011;24840;47.508;19.376;2022-12-16T05:43:01;15.33;;;12.27;;
39094;SDS011;24840;47.508;19.376;2022-12-16T05:45:45;14.87;;;12.40;;
39094;SDS011;24840;47.508;19.376;2022-12-16T05:48:29;17.13;;;12.60;;
39094;SDS011;24840;47.508;19.376;2022-12-16T05:51:13;15.93;;;12.40;;
39094;SDS011;24840;47.508;19.376;2022-12-16T05:53:58;16.10;;;12.07;;
39094;SDS011;24840;47.508;19.376;2022-12-16T05:56:42;22.67;;;14.57;;
39094;SDS011;24840;47.508;19.376;2022-12-16T05:59:26;17.03;;;13.03;;
39094;SDS011;24840;47.508;19.376;2022-12-16T06:02:10;18.87;;;13.47;;
39094;SDS011;24840;47.508;19.376;2022-12-16T06:04:54;22.80;;;14.47;;
39094;SDS011;24840;47.508;19.376;2022-12-16T06:07:38;19.23;;;14.77;;
39094;SDS011;24840;47.508;19.376;2022-12-16T06:10:22;20.00;;;14.07;;
39094;SDS011;24840;47.508;19.376;2022-12-16T06:13:06;21.60;;;14.17;;
39094;SDS011;24840;47.508;19.376;2022-12-16T06:15:52;23.67;;;16.13;;
39094;SDS011;24840;47.508;19.376;2022-12-16T06:18:36;20.37;;;15.30;;
39094;SDS011;24840;47.508;19.376;2022-12-16T06:21:21;21.40;;;15.07;;
39094;SDS011;24840;47.508;19.376;2022-12-16T06:24:05;18.10;;;14.37;;
39094;SDS011;24840;47.508;19.376;2022-12-16T06:26:49;18.93;;;13.70;;
39094;SDS011;24840;47.508;19.376;2022-12-16T06:29:33;19.70;;;14.70;;
39094;SDS011;24840;47.508;19.376;2022-12-16T06:32:17;26.67;;;17.27;;
39094;SDS011;24840;47.508;19.376;2022-12-16T06:35:01;21.73;;;16.13;;
39094;SDS011;24840;47.508;19.376;2022-12-16T06:37:47;21.43;;;16.47;;
39094;SDS011;24840;47.508;19.376;2022-12-16T06:40:33;21.17;;;15.77;;
39094;SDS011;24840;47.508;19.376;2022-12-16T06:43:17;22.77;;;16.27;;
39094;SDS011;24840;47.508;19.376;2022-12-16T06:46:01;20.10;;;15.00;;
39094;SDS011;24840;47.508;19.376;2022-12-16T06:48:45;21.10;;;16.13;;
39094;SDS011;24840;47.508;19.376;2022-12-16T06:51:29;24.40;;;15.67;;
39094;SDS011;24840;47.508;19.376;2022-12-16T06:54:13;20.40;;;14.77;;
39094;SDS011;24840;47.508;19.376;2022-12-16T06:57:00;32.47;;;22.43;;
39094;SDS011;24840;47.508;19.376;2022-12-16T06:59:44;23.30;;;17.43;;
39094;SDS011;24840;47.508;19.376;2022-12-16T07:02:28;25.37;;;17.93;;
39094;SDS011;24840;47.508;19.376;2022-12-16T07:05:12;22.83;;;17.10;;
39094;SDS011;24840;47.508;19.376;2022-12-16T07:07:56;20.03;;;15.73;;
39094;SDS011;24840;47.508;19.376;2022-12-16T07:10:40;19.87;;;15.17;;
39094;SDS011;24840;47.508;19.376;2022-12-16T07:13:25;19.63;;;14.40;;
39094;SDS011;24840;47.508;19.376;2022-12-16T07:16:09;21.60;;;16.20;;
39094;SDS011;24840;47.508;19.376;2022-12-16T07:19:03;21.40;;;15.73;;
39094;SDS011;24840;47.508;19.376;2022-12-16T07:21:48;21.73;;;15.57;;
39094;SDS011;24840;47.508;19.376;2022-12-16T07:24:39;20.37;;;15.33;;
39094;SDS011;24840;47.508;19.376;2022-12-16T07:27:24;22.13;;;15.97;;
39094;SDS011;24840;47.508;19.376;2022-12-16T07:30:08;22.60;;;16.20;;
39094;SDS011;24840;47.508;19.376;2022-12-16T07:32:52;21.27;;;15.60;;
39094;SDS011;24840;47.508;19.376;2022-12-16T07:35:37;20.13;;;15.30;;
39094;SDS011;24840;47.508;19.376;2022-12-16T07:38:21;23.67;;;16.83;;
39094;SDS011;24840;47.508;19.376;2022-12-16T07:41:05;17.63;;;13.80;;
39094;SDS011;24840;47.508;19.376;2022-12-16T07:43:49;19.40;;;13.83;;
39094;SDS011;24840;47.508;19.376;2022-12-16T07:46:33;17.27;;;13.53;;
39094;SDS011;24840;47.508;19.376;2022-12-16T07:49:17;19.03;;;13.43;;
39094;SDS011;24840;47.508;19.376;2022-12-16T07:52:02;17.83;;;13.70;;
39094;SDS011;24840;47.508;19.376;2022-12-16T07:54:46;19.87;;;13.40;;
39094;SDS011;24840;47.508;19.376;2022-12-16T07:57:30;17.97;;;13.87;;
39094;SDS011;24840;47.508;19.376;2022-12-16T08:00:14;16.47;;;12.60;;
39094;SDS011;24840;47.508;19.376;2022-12-16T08:02:59;16.40;;;12.60;;
39094;SDS011;24840;47.508;19.376;2022-12-16T08:05:43;17.13;;;11.63;;
39094;SDS011;24840;47.508;19.376;2022-12-16T08:08:27;18.50;;;13.80;;
39094;SDS011;24840;47.508;19.376;2022-12-16T08:11:11;15.80;;;12.93;;
39094;SDS011;24840;47.508;19.376;2022-12-16T08:13:55;17.40;;;12.70;;
39094;SDS011;24840;47.508;19.376;2022-12-16T08:16:39;17.67;;;13.70;;
39094;SDS011;24840;47.508;19.376;2022-12-16T08:19:23;20.40;;;14.23;;
39094;SDS011;24840;47.508;19.376;2022-12-16T08:22:07;21.10;;;15.43;;
39094;SDS011;24840;47.508;19.376;2022-12-16T08:24:52;16.83;;;13.53;;
39094;SDS011;24840;47.508;19.376;2022-12-16T08:27:36;18.03;;;13.13;;
39094;SDS011;24840;47.508;19.376;2022-12-16T08:30:20;22.00;;;15.70;;
39094;SDS011;24840;47.508;19.376;2022-12-16T08:33:04;18.70;;;13.97;;
39094;SDS011;24840;47.508;19.376;2022-12-16T08:35:48;21.10;;;15.53;;
39094;SDS011;24840;47.508;19.376;2022-12-16T08:38:32;20.17;;;16.10;;
39094;SDS011;24840;47.508;19.376;2022-12-16T08:41:16;22.13;;;17.13;;
39094;SDS011;24840;47.508;19.376;2022-12-16T08:44:01;20.23;;;13.77;;
39094;SDS011;24840;47.508;19.376;2022-12-16T08:46:45;18.00;;;14.70;;
39094;SDS011;24840;47.508;19.376;2022-12-16T08:49:29;19.27;;;15.37;;
39094;SDS011;24840;47.508;19.376;2022-12-16T08:52:13;21.00;;;15.53;;
39094;SDS011;24840;47.508;19.376;2022-12-16T08:54:57;22.83;;;16.37;;
39094;SDS011;24840;47.508;19.376;2022-12-16T08:57:42;19.83;;;15.63;;
39094;SDS011;24840;47.508;19.376;2022-12-16T09:00:26;21.10;;;16.03;;
39094;SDS011;24840;47.508;19.376;2022-12-16T09:03:10;24.90;;;17.67;;
39094;SDS011;24840;47.508;19.376;2022-12-16T09:06:00;23.50;;;18.00;;
39094;SDS011;24840;47.508;19.376;2022-12-16T09:08:44;23.67;;;17.80;;
39094;SDS011;24840;47.508;19.376;2022-12-16T09:11:28;22.30;;;15.60;;
39094;SDS011;24840;47.508;19.376;2022-12-16T09:14:12;35.83;;;17.97;;
39094;SDS011;24840;47.508;19.376;2022-12-16T09:16:57;29.10;;;20.37;;
39094;SDS011;24840;47.508;19.376;2022-12-16T09:19:41;24.13;;;17.90;;
39094;SDS011;24840;47.508;19.376;2022-12-16T09:22:25;22.77;;;18.30;;
39094;SDS011;24840;47.508;19.376;2022-12-16T09:25:09;30.90;;;21.27;;
39094;SDS011;24840;47.508;19.376;2022-12-16T09:27:53;28.13;;;19.83;;
39094;SDS011;24840;47.508;19.376;2022-12-16T09:30:37;31.90;;;22.40;;
39094;SDS011;24840;47.508;19.376;2022-12-16T09:33:22;31.63;;;23.23;;
39094;SDS011;24840;47.508;19.376;2022-12-16T09:36:06;37.27;;;25.13;;
39094;SDS011;24840;47.508;19.376;2022-12-16T09:38:50;36.70;;;25.30;;
39094;SDS011;24840;47.508;19.376;2022-12-16T09:41:50;37.63;;;26.30;;
39094;SDS011;24840;47.508;19.376;2022-12-16T09:48:10;27.03;;;20.37;;
39094;SDS011;24840;47.508;19.376;2022-12-16T09:51:01;28.23;;;19.70;;
39094;SDS011;24840;47.508;19.376;2022-12-16T09:53:49;28.90;;;21.77;;
39094;SDS011;24840;47.508;19.376;2022-12-16T09:56:36;61.23;;;39.97;;
39094;SDS011;24840;47.508;19.376;2022-12-16T09:59:23;45.47;;;32.33;;
39094;SDS011;24840;47.508;19.376;2022-12-16T10:02:13;31.63;;;24.50;;
39094;SDS011;24840;47.508;19.376;2022-12-16T10:05:00;50.17;;;31.03;;
39094;SDS011;24840;47.508;19.376;2022-12-16T10:07:45;56.00;;;32.07;;
39094;SDS011;24840;47.508;19.376;2022-12-16T10:10:59;35.93;;;24.93;;
39094;SDS011;24840;47.508;19.376;2022-12-16T10:13:46;33.77;;;24.40;;
39094;SDS011;24840;47.508;19.376;2022-12-16T10:22:18;38.13;;;25.90;;
39094;SDS011;24840;47.508;19.376;2022-12-16T10:25:26;48.03;;;26.33;;
39094;SDS011;24840;47.508;19.376;2022-12-16T10:31:00;69.13;;;44.83;;
39094;SDS011;24840;47.508;19.376;2022-12-16T10:33:54;47.23;;;33.17;;
39094;SDS011;24840;47.508;19.376;2022-12-16T10:36:38;46.93;;;32.63;;
39094;SDS011;24840;47.508;19.376;2022-12-16T10:42:32;52.30;;;35.77;;
39094;SDS011;24840;47.508;19.376;2022-12-16T10:45:20;53.77;;;36.83;;
39094;SDS011;24840;47.508;19.376;2022-12-16T10:48:12;51.37;;;33.87;;
39094;SDS011;24840;47.508;19.376;2022-12-16T10:50:59;44.57;;;31.87;;
39094;SDS011;24840;47.508;19.376;2022-12-16T10:53:44;53.30;;;34.70;;
39094;SDS011;24840;47.508;19.376;2022-12-16T10:59:43;51.17;;;31.97;;
39094;SDS011;24840;47.508;19.376;2022-12-16T11:02:27;51.13;;;31.07;;
39094;SDS011;24840;47.508;19.376;2022-12-16T11:08:32;54.00;;;33.73;;
39094;SDS011;24840;47.508;19.376;2022-12-16T11:14:14;53.80;;;34.13;;
39094;SDS011;24840;47.508;19.376;2022-12-16T11:29:15;56.13;;;32.90;;
39094;SDS011;24840;47.508;19.376;2022-12-16T11:32:04;58.47;;;34.63;;
39094;SDS011;24840;47.508;19.376;2022-12-16T11:34:53;62.10;;;37.17;;
39094;SDS011;24840;47.508;19.376;2022-12-16T11:37:41;57.03;;;35.95;;
39094;SDS011;24840;47.508;19.376;2022-12-16T11:40:27;53.77;;;34.73;;
39094;SDS011;24840;47.508;19.376;2022-12-16T11:43:14;58.40;;;35.40;;
39094;SDS011;24840;47.508;19.376;2022-12-16T11:46:00;55.53;;;34.70;;
39094;SDS011;24840;47.508;19.376;2022-12-16T11:48:58;57.80;;;35.23;;
39094;SDS011;24840;47.508;19.376;2022-12-16T11:51:45;65.07;;;35.57;;
39094;SDS011;24840;47.508;19.376;2022-12-16T11:54:46;62.27;;;36.77;;
39094;SDS011;24840;47.508;19.376;2022-12-16T11:57:54;52.13;;;32.23;;
39094;SDS011;24840;47.508;19.376;2022-12-16T12:01:02;55.27;;;33.70;;
39094;SDS011;24840;47.508;19.376;2022-12-16T12:03:56;60.03;;;36.13;;
39094;SDS011;24840;47.508;19.376;2022-12-16T12:07:42;55.37;;;33.63;;
39094;SDS011;24840;47.508;19.376;2022-12-16T12:10:05;54.80;;;32.30;;
39094;SDS011;24840;47.508;19.376;2022-12-16T12:12:54;48.53;;;29.77;;
39094;SDS011;24840;47.508;19.376;2022-12-16T12:15:53;52.50;;;29.57;;
39094;SDS011;24840;47.508;19.376;2022-12-16T12:24:50;41.30;;;27.00;;
39094;SDS011;24840;47.508;19.376;2022-12-16T12:30:32;44.47;;;29.67;;
39094;SDS011;24840;47.508;19.376;2022-12-16T12:40:18;34.17;;;23.20;;
39094;SDS011;24840;47.508;19.376;2022-12-16T12:43:21;33.22;;;22.05;;
39094;SDS011;24840;47.508;19.376;2022-12-16T12:46:24;30.57;;;21.70;;
39094;SDS011;24840;47.508;19.376;2022-12-16T12:49:40;35.67;;;22.30;;
39094;SDS011;24840;47.508;19.376;2022-12-16T12:59:03;38.73;;;25.13;;
39094;SDS011;24840;47.508;19.376;2022-12-16T13:02:00;35.80;;;22.97;;
39094;SDS011;24840;47.508;19.376;2022-12-16T13:04:48;30.60;;;19.83;;
39094;SDS011;24840;47.508;19.376;2022-12-16T13:07:33;29.37;;;18.70;;
39094;SDS011;24840;47.508;19.376;2022-12-16T13:15:58;30.57;;;18.03;;
39094;SDS011;24840;47.508;19.376;2022-12-16T13:28:27;24.38;;;15.52;;
39094;SDS011;24840;47.508;19.376;2022-12-16T13:31:16;22.43;;;15.67;;
39094;SDS011;24840;47.508;19.376;2022-12-16T13:34:06;23.67;;;15.90;;
39094;SDS011;24840;47.508;19.376;2022-12-16T13:37:06;21.30;;;14.97;;
39094;SDS011;24840;47.508;19.376;2022-12-16T13:43:02;23.43;;;14.57;;
39094;SDS011;24840;47.508;19.376;2022-12-16T13:48:47;20.87;;;15.47;;
39094;SDS011;24840;47.508;19.376;2022-12-16T13:54:40;30.57;;;18.63;;
39094;SDS011;24840;47.508;19.376;2022-12-16T13:57:34;24.43;;;14.60;;
39094;SDS011;24840;47.508;19.376;2022-12-16T14:00:22;26.70;;;17.30;;
39094;SDS011;24840;47.508;19.376;2022-12-16T14:03:11;22.77;;;14.47;;
39094;SDS011;24840;47.508;19.376;2022-12-16T14:06:12;20.57;;;13.40;;
39094;SDS011;24840;47.508;19.376;2022-12-16T14:09:00;21.70;;;14.33;;
39094;SDS011;24840;47.508;19.376;2022-12-16T14:11:48;26.30;;;16.37;;
39094;SDS011;24840;47.508;19.376;2022-12-16T14:15:04;25.97;;;16.33;;
39094;SDS011;24840;47.508;19.376;2022-12-16T14:17:54;27.40;;;18.07;;
39094;SDS011;24840;47.508;19.376;2022-12-16T14:20:49;29.13;;;18.50;;
39094;SDS011;24840;47.508;19.376;2022-12-16T14:23:59;28.00;;;18.27;;
39094;SDS011;24840;47.508;19.376;2022-12-16T14:26:49;35.87;;;21.10;;
39094;SDS011;24840;47.508;19.376;2022-12-16T14:29:33;26.60;;;17.30;;
39094;SDS011;24840;47.508;19.376;2022-12-16T14:35:14;21.40;;;15.43;;
39094;SDS011;24840;47.508;19.376;2022-12-16T14:38:20;21.30;;;13.73;;
39094;SDS011;24840;47.508;19.376;2022-12-16T14:41:14;21.07;;;14.80;;
39094;SDS011;24840;47.508;19.376;2022-12-16T14:44:02;27.87;;;20.17;;
39094;SDS011;24840;47.508;19.376;2022-12-16T14:46:59;20.00;;;14.07;;
39094;SDS011;24840;47.508;19.376;2022-12-16T14:49:47;26.00;;;17.33;;
39094;SDS011;24840;47.508;19.376;2022-12-16T14:52:34;27.40;;;18.17;;
39094;SDS011;24840;47.508;19.376;2022-12-16T14:55:28;32.47;;;20.33;;
39094;SDS011;24840;47.508;19.376;2022-12-16T14:58:15;27.67;;;17.30;;
39094;SDS011;24840;47.508;19.376;2022-12-16T15:01:11;21.10;;;14.80;;
39094;SDS011;24840;47.508;19.376;2022-12-16T15:03:57;22.50;;;16.00;;
39094;SDS011;24840;47.508;19.376;2022-12-16T15:06:45;24.60;;;18.43;;
39094;SDS011;24840;47.508;19.376;2022-12-16T15:09:41;31.27;;;21.13;;
39094;SDS011;24840;47.508;19.376;2022-12-16T15:12:31;30.70;;;22.27;;
39094;SDS011;24840;47.508;19.376;2022-12-16T15:18:23;35.60;;;23.13;;
39094;SDS011;24840;47.508;19.376;2022-12-16T15:21:11;34.60;;;23.57;;
39094;SDS011;24840;47.508;19.376;2022-12-16T15:23:56;44.33;;;27.80;;
39094;SDS011;24840;47.508;19.376;2022-12-16T15:33:23;33.47;;;21.73;;
39094;SDS011;24840;47.508;19.376;2022-12-16T15:36:28;29.93;;;21.07;;
39094;SDS011;24840;47.508;19.376;2022-12-16T15:39:18;23.87;;;17.90;;
39094;SDS011;24840;47.508;19.376;2022-12-16T15:48:16;28.70;;;20.03;;
39094;SDS011;24840;47.508;19.376;2022-12-16T15:51:27;28.57;;;19.53;;
39094;SDS011;24840;47.508;19.376;2022-12-16T15:54:15;25.37;;;17.80;;
39094;SDS011;24840;47.508;19.376;2022-12-16T16:00:38;27.33;;;18.83;;
39094;SDS011;24840;47.508;19.376;2022-12-16T16:03:29;32.73;;;19.87;;
39094;SDS011;24840;47.508;19.376;2022-12-16T16:06:20;28.93;;;19.87;;
39094;SDS011;24840;47.508;19.376;2022-12-16T16:09:15;30.83;;;21.23;;
39094;SDS011;24840;47.508;19.376;2022-12-16T16:12:04;30.03;;;20.07;;
39094;SDS011;24840;47.508;19.376;2022-12-16T16:14:50;33.57;;;21.80;;
39094;SDS011;24840;47.508;19.376;2022-12-16T16:17:35;33.37;;;22.33;;
39094;SDS011;24840;47.508;19.376;2022-12-16T16:20:19;34.20;;;23.27;;
39094;SDS011;24840;47.508;19.376;2022-12-16T16:23:03;35.27;;;22.13;;
39094;SDS011;24840;47.508;19.376;2022-12-16T16:25:47;33.50;;;21.93;;
39094;SDS011;24840;47.508;19.376;2022-12-16T16:28:32;26.50;;;18.60;;
39094;SDS011;24840;47.508;19.376;2022-12-16T16:31:17;27.53;;;19.87;;
39094;SDS011;24840;47.508;19.376;2022-12-16T16:34:01;19.00;;;14.87;;
39094;SDS011;24840;47.508;19.376;2022-12-16T16:36:46;19.40;;;15.63;;
39094;SDS011;24840;47.508;19.376;2022-12-16T16:39:34;24.40;;;15.67;;
39094;SDS011;24840;47.508;19.376;2022-12-16T16:42:19;28.33;;;19.57;;
39094;SDS011;24840;47.508;19.376;2022-12-16T16:45:03;23.70;;;16.87;;
39094;SDS011;24840;47.508;19.376;2022-12-16T16:47:47;19.87;;;14.43;;
39094;SDS011;24840;47.508;19.376;2022-12-16T16:50:31;26.63;;;19.60;;
39094;SDS011;24840;47.508;19.376;2022-12-16T16:53:16;22.77;;;16.87;;
39094;SDS011;24840;47.508;19.376;2022-12-16T16:56:00;23.57;;;17.23;;
39094;SDS011;24840;47.508;19.376;2022-12-16T16:58:44;27.03;;;19.70;;
39094;SDS011;24840;47.508;19.376;2022-12-16T17:01:28;28.97;;;17.50;;
39094;SDS011;24840;47.508;19.376;2022-12-16T17:04:12;17.03;;;14.30;;
39094;SDS011;24840;47.508;19.376;2022-12-16T17:06:56;17.50;;;14.63;;
39094;SDS011;24840;47.508;19.376;2022-12-16T17:09:41;17.70;;;14.83;;
39094;SDS011;24840;47.508;19.376;2022-12-16T17:12:26;19.23;;;15.10;;
39094;SDS011;24840;47.508;19.376;2022-12-16T17:15:17;21.90;;;16.47;;
39094;SDS011;24840;47.508;19.376;2022-12-16T17:18:05;21.60;;;15.80;;
39094;SDS011;24840;47.508;19.376;2022-12-16T17:20:49;21.17;;;15.73;;
39094;SDS011;24840;47.508;19.376;2022-12-16T17:23:34;22.90;;;17.30;;
39094;SDS011;24840;47.508;19.376;2022-12-16T17:26:19;21.67;;;17.10;;
39094;SDS011;24840;47.508;19.376;2022-12-16T17:29:03;19.47;;;15.53;;
39094;SDS011;24840;47.508;19.376;2022-12-16T17:31:48;19.47;;;14.27;;
39094;SDS011;24840;47.508;19.376;2022-12-16T17:34:32;21.10;;;15.27;;
39094;SDS011;24840;47.508;19.376;2022-12-16T17:37:16;19.20;;;15.30;;
39094;SDS011;24840;47.508;19.376;2022-12-16T17:40:00;17.57;;;14.77;;
39094;SDS011;24840;47.508;19.376;2022-12-16T17:42:44;19.50;;;15.57;;
39094;SDS011;24840;47.508;19.376;2022-12-16T17:45:28;20.00;;;15.23;;
39094;SDS011;24840;47.508;19.376;2022-12-16T17:48:12;18.13;;;14.30;;
39094;SDS011;24840;47.508;19.376;2022-12-16T17:50:56;20.00;;;15.30;;
39094;SDS011;24840;47.508;19.376;2022-12-16T17:53:40;20.50;;;16.07;;
39094;SDS011;24840;47.508;19.376;2022-12-16T17:56:24;22.17;;;16.87;;
39094;SDS011;24840;47.508;19.376;2022-12-16T17:59:08;21.53;;;16.87;;
39094;SDS011;24840;47.508;19.376;2022-12-16T18:01:53;22.20;;;15.40;;
39094;SDS011;24840;47.508;19.376;2022-12-16T18:04:37;19.40;;;15.63;;
39094;SDS011;24840;47.508;19.376;2022-12-16T18:07:21;20.87;;;15.20;;